Hawaii Aviation Weather

Weather Information Updated from 1800wxbrief.com

Please note, all weather information provided should be validated for accuracy before flying. Click on each Blue link for more information.

REAL TIME LOCAL RADAR – Base Reflectivity (10min)

General Forecasts (Prog Charts)
Hawaii Lo-Level Sig Progs

Thunderstorm & Severe Weather Forecast
Hawaii Severe Weather Outlook

General Forecasts (Prog Charts)
NE Pacific Surface Analysis

General Forecasts (Prog Charts)
Hawaii Surface Forecast

Aviation Weather from NOAA

PHNL – Honolulu

Available data for PHNL from the past 2 hours
HONOLULU, HI
Metar
PHNL 162153Z 04011KT 10SM FEW022 SCT036 BKN060 BKN150 29/22 A2999 RMK AO2 RAE39 SLP156 VCSH NE P0001 T02940217

21:53 UTC

Wind: 40° 11kt

Visibility: 10 SM

Sky: FEW 2200 ft

Temp: 29 deg C / 84.2 deg F

Dewpoint: 22 deg C / 71.6 deg F

Pressure: 29.99 inHg

TAF
PHNL 162109Z 1621/1724 05011G16KT P6SM VCSH SCT020 BKN035 TEMPO 1623/1703 3SM -TSRA SCT015 BKN022CB FM170500 07008KT P6SM VCSH SCT025 BKN035 FM171800 07012KT P6SM VCSH FEW025 SCT035
Pirep (1)
LIH UA /OV LIH135015/TM 2134/FL045/TP A321/SK SCT030

PHJR – Kalealoa (Rogers)

Available data for PHJR from the past 2 hours
KALAELOA, HI
Metar
PHJR 162153Z 04003KT 10SM -RA SCT035 SCT047 SCT070 27/23 A3001 RMK AO2 RAB19 SLP169 P0001 T02670228

21:53 UTC

Wind: 40° 3kt

Visibility: 10 SM

Sky: SCT 3500 ft

Temp: 27 deg C / 80.6 deg F

Dewpoint: 23 deg C / 73.4 deg F

Pressure: 30.01 inHg

TAF
PHJR 162158Z 1622/1718 VRB06KT P6SM VCSH SCT020 BKN040 TEMPO 1623/1703 3SM -TSRA SCT015 BKN022CB FM170500 10008KT P6SM VCSH SCT025 BKN035
Pirep (1)
LIH UA /OV LIH135015/TM 2134/FL045/TP A321/SK SCT030

PHNG – Kaneohe

Available data for PHNG from the past 2 hours
KANEOHE MCAS, HI
Metar
PHNG 162157Z 07009KT 10SM FEW014 SCT085 27/23 A2999 RMK AO2 RAE10B26E44 SLP149 P0003 T02720228

21:57 UTC

Wind: 70° 9kt

Visibility: 10 SM

Sky: FEW 1400 ft

Temp: 27 deg C / 80.6 deg F

Dewpoint: 23 deg C / 73.4 deg F

Pressure: 29.99 inHg

TAF
TAF PHNG 1621/1721 08010KT 9999 SCT030 BKN065 BKN090 QNH2994INS TEMPO 1621/1702 09012G18KT 3200 +SHRA BKN020 BKN045 FM170700 09010G16KT 9999 SCT025 SCT055 BKN095 QNH2998INS TEMPO 1709/1715 8000 -SHRA BKN030 BKN055 T28/1623Z T26/1713Z
Pirep (1)
LIH UA /OV LIH135015/TM 2134/FL045/TP A321/SK SCT030

PHHI – Wheeler

Available data for PHHI from the past 2 hours
WHEELER AFB/OAHU, HI
Metar
PHHI 162156Z AUTO 10005KT 10SM BKN024 BKN036 27/22 A3002 RMK AO2 CIG 024V036 BKN024 V SCT SLP154 T02680217

21:56 UTC

Wind: 100° 5kt

Visibility: 10 SM

Sky: BKN 2400 ft

Temp: 27 deg C / 80.6 deg F

Dewpoint: 22 deg C / 71.6 deg F

Pressure: 30.02 inHg

TAF
TAF PHHI 161500Z 1615/1721 VRB06KT 9999 FEW020 SCT030 QNH2996INS BECMG 1619/1620 06012KT 8000 -SHRA SCT015 BKN025 QNH2995INS TEMPO 1620/1702 2400 TSRA SCT005 BKN015CB BECMG 1706/1707 VRB06KT 9999 NSW SCT030 QNH2999INS BECMG 1719/1720 07012KT 4800 SHRA VCTS SCT025CB BKN040 QNH2997INS TX30/1702Z TN20/1615Z
Pirep (1)
LIH UA /OV LIH135015/TM 2134/FL045/TP A321/SK SCT030
Honolulu 3 Day Forecast (Wind, Temp, etc)
HAWAII INFRARED Satellite
HAWAII Visible Satellite
HAWAII National Weather Service Forecast